createdAt,value
2022-11-26T00:01:20.056Z,15.45
2022-11-26T00:08:21.951Z,16.15
2022-11-26T00:15:28.325Z,17.05
2022-11-26T00:22:31.416Z,14.90
2022-11-26T00:29:33.217Z,14.95
2022-11-26T00:36:34.992Z,15.80
2022-11-26T00:43:36.723Z,15.77
2022-11-26T00:50:43.828Z,16.70
2022-11-26T00:57:45.830Z,15.25
2022-11-26T01:04:47.537Z,17.50
2022-11-26T01:11:53.857Z,17.15
2022-11-26T01:18:57.301Z,16.02
2022-11-26T01:26:02.468Z,16.00
2022-11-26T01:33:08.112Z,18.53
2022-11-26T01:40:26.409Z,18.58
2022-11-26T01:47:29.919Z,16.83
2022-11-26T01:54:32.726Z,16.63
2022-11-26T02:01:34.868Z,16.83
2022-11-26T02:08:37.046Z,17.90
2022-11-26T02:15:45.287Z,17.25
2022-11-26T02:22:50.257Z,18.05
2022-11-26T02:30:03.574Z,15.75
2022-11-26T02:37:13.234Z,16.80
2022-11-26T02:44:20.740Z,19.30
2022-11-26T02:51:24.180Z,18.60
2022-11-26T02:58:25.881Z,17.85
2022-11-26T03:05:28.541Z,16.45
2022-11-26T03:12:31.601Z,16.85
2022-11-26T03:19:33.524Z,15.68
2022-11-26T03:26:35.302Z,15.88
2022-11-26T03:33:37.142Z,15.63
2022-11-26T03:40:38.900Z,15.60
2022-11-26T03:47:40.824Z,16.33
2022-11-26T03:54:42.724Z,15.27
2022-11-26T04:01:44.697Z,17.30
2022-11-26T04:08:46.491Z,16.33
2022-11-26T04:15:48.784Z,15.23
2022-11-26T04:22:50.638Z,15.15
2022-11-26T04:29:52.593Z,14.82
2022-11-26T04:36:54.379Z,14.30
2022-11-26T04:43:56.354Z,13.20
2022-11-26T04:50:58.227Z,14.50
2022-11-26T04:58:00.095Z,15.00
2022-11-26T05:05:01.872Z,15.63
2022-11-26T05:12:03.907Z,14.63
2022-11-26T05:19:05.834Z,12.80
2022-11-26T05:26:07.734Z,14.55
2022-11-26T05:33:09.486Z,14.88
2022-11-26T05:40:11.892Z,15.15
2022-11-26T05:47:13.670Z,15.13
2022-11-26T05:54:15.981Z,15.23
2022-11-26T06:01:17.868Z,15.35
2022-11-26T06:08:19.597Z,13.45
2022-11-26T06:15:21.501Z,15.10
2022-11-26T06:22:23.232Z,13.95
2022-11-26T06:29:27.941Z,14.68
2022-11-26T06:36:30.319Z,14.27
2022-11-26T06:43:32.873Z,15.18
2022-11-26T06:50:34.911Z,17.63
2022-11-26T06:57:36.791Z,15.65
2022-11-26T07:04:38.709Z,15.98
2022-11-26T07:11:41.643Z,15.10
2022-11-26T07:18:43.490Z,17.73
2022-11-26T07:25:45.433Z,14.13
2022-11-26T07:32:47.256Z,15.30
2022-11-26T07:39:49.918Z,16.23
2022-11-26T07:46:51.771Z,14.93
2022-11-26T07:53:54.113Z,15.82
2022-11-26T08:00:56.008Z,19.08
2022-11-26T08:07:57.872Z,19.48
2022-11-26T08:14:59.696Z,21.42
2022-11-26T08:22:01.535Z,15.95
2022-11-26T08:29:03.773Z,13.05
2022-11-26T08:36:14.693Z,14.05
2022-11-26T08:43:16.582Z,15.25
2022-11-26T08:50:20.936Z,15.40
2022-11-26T08:57:23.028Z,23.67
2022-11-26T09:04:24.830Z,18.15
2022-11-26T09:11:27.707Z,16.90
2022-11-26T09:18:29.613Z,16.73
2022-11-26T09:25:41.143Z,17.40
2022-11-26T09:32:45.614Z,17.90
2022-11-26T09:39:55.775Z,17.42
2022-11-26T09:47:13.119Z,14.85
2022-11-26T09:54:32.555Z,19.13
2022-11-26T10:01:35.891Z,16.02
2022-11-26T10:08:47.108Z,15.13
2022-11-26T10:15:57.517Z,17.35
2022-11-26T10:23:06.590Z,16.23
2022-11-26T10:30:29.488Z,17.23
2022-11-26T10:37:34.091Z,17.02
2022-11-26T10:44:43.981Z,16.73
2022-11-26T10:51:55.277Z,15.38
2022-11-26T10:59:04.683Z,15.55
2022-11-26T11:06:20.903Z,17.23
2022-11-26T11:13:29.230Z,16.40
2022-11-26T11:20:37.149Z,16.40
2022-11-26T11:27:45.585Z,14.75
2022-11-26T11:34:51.029Z,14.88
2022-11-26T11:41:56.289Z,16.60
2022-11-26T11:49:12.921Z,12.93
2022-11-26T11:56:25.671Z,13.13
2022-11-26T12:03:38.751Z,14.10
2022-11-26T12:10:49.414Z,14.45
2022-11-26T12:18:12.291Z,14.55
2022-11-26T12:25:30.083Z,15.25
2022-11-26T12:32:42.778Z,16.52
2022-11-26T12:39:53.359Z,16.27
2022-11-26T12:47:12.277Z,17.88
2022-11-26T12:54:16.288Z,16.60
2022-11-26T13:01:20.939Z,17.58
2022-11-26T13:08:25.406Z,16.05
2022-11-26T13:15:35.241Z,17.30
2022-11-26T13:22:40.037Z,13.98
2022-11-26T13:30:05.087Z,15.02
2022-11-26T13:37:28.080Z,18.35
2022-11-26T13:44:32.610Z,19.05
2022-11-26T13:51:41.404Z,16.45
2022-11-26T13:58:47.009Z,17.30
2022-11-26T14:05:54.047Z,17.08
2022-11-26T14:13:22.593Z,15.93
2022-11-26T14:20:28.298Z,14.52
2022-11-26T14:27:34.837Z,16.02
2022-11-26T14:34:53.099Z,17.25
2022-11-26T14:42:06.826Z,15.57
2022-11-26T14:49:27.473Z,15.38
2022-11-26T14:56:33.605Z,16.27
2022-11-26T15:03:42.720Z,16.83
2022-11-26T15:11:07.663Z,21.05
2022-11-26T15:18:15.197Z,20.55
2022-11-26T15:25:25.843Z,22.35
2022-11-26T15:32:32.344Z,24.00
2022-11-26T15:39:39.926Z,32.67
2022-11-26T15:46:51.809Z,28.00
2022-11-26T15:53:55.710Z,21.40
2022-11-26T16:01:03.500Z,20.25
2022-11-26T16:08:26.862Z,16.80
2022-11-26T16:15:33.507Z,17.10
2022-11-26T16:22:38.893Z,16.45
2022-11-26T16:29:44.882Z,19.02
2022-11-26T16:36:50.787Z,19.52
2022-11-26T16:43:58.620Z,21.00
2022-11-26T16:51:04.125Z,20.73
2022-11-26T16:58:11.178Z,19.13
2022-11-26T17:05:19.324Z,18.55
2022-11-26T17:12:28.013Z,17.05
2022-11-26T17:19:32.421Z,17.07
2022-11-26T17:26:43.438Z,17.02
2022-11-26T17:33:48.217Z,19.38
2022-11-26T17:40:54.904Z,20.50
2022-11-26T17:48:04.710Z,15.65
2022-11-26T17:55:10.746Z,16.75
2022-11-26T18:02:16.189Z,19.88
2022-11-26T18:09:24.134Z,21.52
2022-11-26T18:16:31.070Z,17.52
2022-11-26T18:23:39.392Z,13.82
2022-11-26T18:30:48.238Z,14.68
2022-11-26T18:37:59.776Z,13.68
2022-11-26T18:45:06.595Z,14.13
2022-11-26T18:52:13.381Z,12.43
2022-11-26T18:59:19.021Z,12.52
2022-11-26T19:06:31.395Z,11.32
2022-11-26T19:13:37.732Z,11.65
2022-11-26T19:20:54.737Z,10.70
2022-11-26T19:28:05.106Z,12.85
2022-11-26T19:35:13.024Z,13.10
2022-11-26T19:42:20.042Z,12.50
2022-11-26T19:49:25.765Z,12.02
2022-11-26T19:56:36.778Z,11.43
2022-11-26T20:03:47.206Z,10.73
2022-11-26T20:10:53.206Z,10.30
2022-11-26T20:18:00.379Z,10.95
2022-11-26T20:25:07.305Z,13.25
2022-11-26T20:32:17.576Z,12.10
2022-11-26T20:39:27.868Z,16.05
2022-11-26T20:46:30.905Z,13.60
2022-11-26T20:53:33.341Z,12.05
2022-11-26T21:00:38.561Z,11.75
2022-11-26T21:07:42.738Z,10.98
2022-11-26T21:14:44.574Z,10.73
2022-11-26T21:21:46.731Z,9.88
2022-11-26T21:28:53.635Z,10.75
2022-11-26T21:35:56.096Z,11.40
2022-11-26T21:42:58.515Z,11.68
2022-11-26T21:50:00.521Z,12.32
2022-11-26T21:57:02.310Z,14.10
2022-11-26T22:04:08.680Z,11.88
2022-11-26T22:11:11.929Z,10.88
2022-11-26T22:18:13.675Z,11.43
2022-11-26T22:25:15.437Z,11.85
2022-11-26T22:32:17.196Z,11.30
2022-11-26T22:39:20.604Z,12.60
2022-11-26T22:46:23.233Z,14.25
2022-11-26T22:53:25.070Z,18.20
2022-11-26T23:00:45.909Z,12.45
2022-11-26T23:07:47.658Z,12.57
2022-11-26T23:14:49.616Z,17.63
2022-11-26T23:21:51.825Z,16.42
2022-11-26T23:28:54.261Z,13.55
2022-11-26T23:35:56.770Z,12.88
2022-11-26T23:42:58.677Z,11.98
2022-11-26T23:50:01.129Z,9.45
2022-11-26T23:57:03.144Z,12.00
